KQA515 DGAA-HKJK
Flight info
| Callsign | KQA515 |
|---|---|
| Flight time | N/A |
| Altitude | 39000 |
| Route | EREKA1D EREKA DCT ENEVO UP685 DLA UR984 NLY UL434 DESAM/N0485F410 UL434 NN UL433 NAKAT NAKAT4A |
| Aircraft | B788/H-SDE1E2E3FGHIJ2J3J4J5M1RWXYZ/LB1D1 |
Departure
| Time | 2026-04-22 11:08 |
|---|---|
| Airport | Kotoka International Airport (DGAA) |
Arrival
| Time | N/A |
|---|---|
| Airport | Jomo Kenyatta International Airport (HKJK) |
| Time | Latitude | Longitude | Altitude | Speed | Heading |
|---|---|---|---|---|---|
| 2026-04-22 10:24 | 5.60283 | -0.17143 | 210 ft | 0 kts | 292° |
| 2026-04-22 10:53 | 5.60282 | -0.17141 | 210 ft | 2 kts | 292° |
| 2026-04-22 10:53 | 5.60276 | -0.17127 | 210 ft | 2 kts | 292° |
| 2026-04-22 10:53 | 5.60270 | -0.17112 | 210 ft | 2 kts | 292° |
| 2026-04-22 10:54 | 5.60265 | -0.17098 | 210 ft | 2 kts | 292° |
| 2026-04-22 10:54 | 5.60259 | -0.17085 | 210 ft | 2 kts | 307° |
| 2026-04-22 10:54 | 5.60248 | -0.17073 | 210 ft | 2 kts | 319° |
| 2026-04-22 10:54 | 5.60237 | -0.17065 | 210 ft | 2 kts | 339° |
| 2026-04-22 10:55 | 5.60223 | -0.17062 | 210 ft | 2 kts | 358° |
| 2026-04-22 10:55 | 5.60208 | -0.17063 | 210 ft | 2 kts | 13° |
| 2026-04-22 10:55 | 5.60194 | -0.17068 | 210 ft | 2 kts | 24° |
| 2026-04-22 10:55 | 5.60181 | -0.17073 | 210 ft | 2 kts | 23° |
| 2026-04-22 10:56 | 5.60180 | -0.17073 | 210 ft | 0 kts | 23° |
| 2026-04-22 10:57 | 5.60181 | -0.17073 | 210 ft | 0 kts | 23° |
| 2026-04-22 10:59 | 5.60195 | -0.17067 | 210 ft | 5 kts | 23° |
| 2026-04-22 10:59 | 5.60239 | -0.17048 | 210 ft | 9 kts | 23° |
| 2026-04-22 10:59 | 5.60313 | -0.17018 | 210 ft | 11 kts | 22° |
| 2026-04-22 10:59 | 5.60390 | -0.16986 | 210 ft | 14 kts | 22° |
| 2026-04-22 11:00 | 5.60494 | -0.16943 | 210 ft | 18 kts | 22° |
| 2026-04-22 11:00 | 5.60625 | -0.16890 | 210 ft | 22 kts | 22° |
| 2026-04-22 11:00 | 5.60776 | -0.16827 | 210 ft | 24 kts | 22° |
| 2026-04-22 11:00 | 5.60919 | -0.16768 | 210 ft | 21 kts | 22° |
| 2026-04-22 11:01 | 5.61059 | -0.16710 | 210 ft | 22 kts | 22° |
| 2026-04-22 11:01 | 5.61202 | -0.16651 | 210 ft | 23 kts | 22° |
| 2026-04-22 11:01 | 5.61333 | -0.16597 | 210 ft | 18 kts | 22° |
| 2026-04-22 11:01 | 5.61452 | -0.16549 | 210 ft | 18 kts | 22° |
| 2026-04-22 11:02 | 5.61563 | -0.16502 | 210 ft | 9 kts | 24° |
| 2026-04-22 11:02 | 5.61615 | -0.16449 | 210 ft | 6 kts | 86° |
| 2026-04-22 11:02 | 5.61615 | -0.16448 | 210 ft | 0 kts | 88° |
| 2026-04-22 11:03 | 5.61615 | -0.16447 | 210 ft | 0 kts | 88° |
| 2026-04-22 11:03 | 5.61615 | -0.16440 | 210 ft | 3 kts | 84° |
| 2026-04-22 11:03 | 5.61612 | -0.16403 | 210 ft | 8 kts | 103° |
| 2026-04-22 11:04 | 5.61602 | -0.16335 | 210 ft | 12 kts | 86° |
| 2026-04-22 11:04 | 5.61648 | -0.16263 | 210 ft | 12 kts | 30° |
| 2026-04-22 11:04 | 5.61730 | -0.16226 | 210 ft | 12 kts | 22° |
| 2026-04-22 11:04 | 5.61794 | -0.16199 | 210 ft | 11 kts | 28° |
| 2026-04-22 11:05 | 5.61860 | -0.16162 | 210 ft | 9 kts | 7° |
| 2026-04-22 11:05 | 5.61889 | -0.16183 | 210 ft | 3 kts | 283° |
| 2026-04-22 11:05 | 5.61886 | -0.16197 | 210 ft | 2 kts | 247° |
| 2026-04-22 11:05 | 5.61876 | -0.16204 | 210 ft | 2 kts | 212° |
| 2026-04-22 11:06 | 5.61850 | -0.16209 | 210 ft | 5 kts | 183° |
| 2026-04-22 11:06 | 5.61810 | -0.16208 | 210 ft | 8 kts | 180° |
| 2026-04-22 11:06 | 5.61753 | -0.16218 | 210 ft | 10 kts | 199° |
| 2026-04-22 11:06 | 5.61704 | -0.16237 | 210 ft | 0 kts | 202° |
| 2026-04-22 11:07 | 5.61681 | -0.16246 | 210 ft | 24 kts | 202° |
| 2026-04-22 11:07 | 5.61184 | -0.16452 | 210 ft | 126 kts | 202° |
| 2026-04-22 11:08 | 5.60131 | -0.16895 | 407 ft | 184 kts | 204° |
| 2026-04-22 11:08 | 5.58936 | -0.17354 | 1466 ft | 190 kts | 203° |
| 2026-04-22 11:08 | 5.57664 | -0.17865 | 2319 ft | 201 kts | 204° |
| 2026-04-22 11:08 | 5.56207 | -0.18096 | 2692 ft | 224 kts | 178° |
| 2026-04-22 11:09 | 5.54757 | -0.17511 | 3152 ft | 233 kts | 146° |
| 2026-04-22 11:09 | 5.53766 | -0.16205 | 3745 ft | 237 kts | 114° |
| 2026-04-22 11:09 | 5.53576 | -0.14586 | 4412 ft | 237 kts | 84° |
| 2026-04-22 11:09 | 5.54181 | -0.13088 | 5264 ft | 231 kts | 63° |
| 2026-04-22 11:10 | 5.54935 | -0.11661 | 6083 ft | 233 kts | 63° |
| 2026-04-22 11:10 | 5.55617 | -0.10150 | 6653 ft | 242 kts | 67° |
| 2026-04-22 11:10 | 5.56231 | -0.08544 | 7249 ft | 250 kts | 70° |
| 2026-04-22 11:10 | 5.56588 | -0.06809 | 7744 ft | 262 kts | 86° |
| 2026-04-22 11:11 | 5.56150 | -0.05042 | 8401 ft | 265 kts | 107° |
| 2026-04-22 11:11 | 5.55490 | -0.03297 | 9194 ft | 265 kts | 108° |
| 2026-04-22 11:11 | 5.54908 | -0.01552 | 9831 ft | 268 kts | 105° |
| 2026-04-22 11:11 | 5.54535 | -0.00279 | 10227 ft | 273 kts | 104° |
| 2026-04-22 11:12 | 5.54497 | -0.00141 | 10260 ft | 274 kts | 104° |
| 2026-04-22 11:12 | 5.53996 | 0.01766 | 10691 ft | 286 kts | 103° |
| 2026-04-22 11:12 | 5.53625 | 0.03299 | 11009 ft | 295 kts | 102° |
| 2026-04-22 11:12 | 5.53341 | 0.04517 | 11264 ft | 301 kts | 102° |
| 2026-04-22 11:13 | 5.52876 | 0.06576 | 11707 ft | 311 kts | 102° |
| 2026-04-22 11:13 | 5.52399 | 0.08744 | 12070 ft | 323 kts | 102° |
| 2026-04-22 11:13 | 5.51911 | 0.10991 | 12321 ft | 338 kts | 102° |
| 2026-04-22 11:13 | 5.51404 | 0.13345 | 12640 ft | 350 kts | 102° |
| 2026-04-22 11:14 | 5.50883 | 0.15772 | 13062 ft | 358 kts | 102° |
| 2026-04-22 11:14 | 5.50352 | 0.18248 | 13549 ft | 364 kts | 102° |
| 2026-04-22 11:14 | 5.49817 | 0.20747 | 14065 ft | 369 kts | 102° |
| 2026-04-22 11:14 | 5.49280 | 0.23256 | 14595 ft | 373 kts | 102° |
| 2026-04-22 11:15 | 5.48722 | 0.25857 | 15107 ft | 378 kts | 102° |
| 2026-04-22 11:15 | 5.48172 | 0.28426 | 15596 ft | 383 kts | 102° |
| 2026-04-22 11:15 | 5.47607 | 0.31061 | 16093 ft | 388 kts | 102° |
| 2026-04-22 11:15 | 5.47038 | 0.33718 | 16587 ft | 392 kts | 102° |
| 2026-04-22 11:16 | 5.46459 | 0.36421 | 17075 ft | 397 kts | 102° |
| 2026-04-22 11:16 | 5.45877 | 0.39135 | 17546 ft | 401 kts | 102° |
| 2026-04-22 11:16 | 5.45290 | 0.41876 | 18003 ft | 406 kts | 102° |
| 2026-04-22 11:16 | 5.44693 | 0.44658 | 18451 ft | 411 kts | 102° |
| 2026-04-22 11:17 | 5.44086 | 0.47488 | 18896 ft | 416 kts | 102° |
| 2026-04-22 11:17 | 5.43473 | 0.50347 | 19334 ft | 420 kts | 102° |
| 2026-04-22 11:17 | 5.42855 | 0.53228 | 19826 ft | 423 kts | 102° |
| 2026-04-22 11:17 | 5.42234 | 0.56115 | 20362 ft | 425 kts | 102° |
| 2026-04-22 11:18 | 5.41607 | 0.59025 | 20887 ft | 426 kts | 101° |
| 2026-04-22 11:18 | 5.40978 | 0.61943 | 21359 ft | 429 kts | 101° |
| 2026-04-22 11:18 | 5.40342 | 0.64897 | 21791 ft | 433 kts | 101° |
| 2026-04-22 11:18 | 5.39710 | 0.67838 | 22186 ft | 437 kts | 101° |
| 2026-04-22 11:19 | 5.39066 | 0.70834 | 22577 ft | 442 kts | 101° |
| 2026-04-22 11:19 | 5.38415 | 0.73861 | 22969 ft | 446 kts | 100° |
| 2026-04-22 11:19 | 5.37759 | 0.76914 | 23361 ft | 449 kts | 100° |
| 2026-04-22 11:19 | 5.37097 | 0.79996 | 23748 ft | 453 kts | 100° |
| 2026-04-22 11:20 | 5.36429 | 0.83105 | 24118 ft | 458 kts | 100° |
| 2026-04-22 11:20 | 5.35754 | 0.86245 | 24468 ft | 462 kts | 99° |
| 2026-04-22 11:20 | 5.35079 | 0.89389 | 24797 ft | 467 kts | 99° |
| 2026-04-22 11:20 | 5.34389 | 0.92598 | 25141 ft | 471 kts | 99° |
| 2026-04-22 11:21 | 5.33699 | 0.95802 | 25670 ft | 470 kts | 99° |
| 2026-04-22 11:21 | 5.33009 | 0.99002 | 26264 ft | 468 kts | 99° |
| 2026-04-22 11:21 | 5.32346 | 1.02082 | 26809 ft | 466 kts | 100° |
| 2026-04-22 11:21 | 5.31663 | 1.05258 | 27300 ft | 466 kts | 100° |
| 2026-04-22 11:22 | 5.30975 | 1.08456 | 27720 ft | 468 kts | 100° |
| 2026-04-22 11:22 | 5.30287 | 1.11651 | 28093 ft | 470 kts | 101° |
| 2026-04-22 11:22 | 5.29601 | 1.14838 | 28461 ft | 473 kts | 101° |
| 2026-04-22 11:22 | 5.28905 | 1.18066 | 28841 ft | 475 kts | 101° |
| 2026-04-22 11:23 | 5.28206 | 1.21311 | 29229 ft | 476 kts | 102° |
| 2026-04-22 11:23 | 5.27503 | 1.24565 | 29612 ft | 478 kts | 102° |
| 2026-04-22 11:23 | 5.26798 | 1.27835 | 29970 ft | 480 kts | 102° |
| 2026-04-22 11:23 | 5.26086 | 1.31127 | 30292 ft | 483 kts | 103° |
| 2026-04-22 11:24 | 5.25369 | 1.34447 | 30587 ft | 487 kts | 103° |
| 2026-04-22 11:24 | 5.24649 | 1.37774 | 30871 ft | 491 kts | 103° |
| 2026-04-22 11:24 | 5.23921 | 1.41139 | 31167 ft | 494 kts | 103° |
| 2026-04-22 11:24 | 5.23191 | 1.44514 | 31477 ft | 498 kts | 104° |
| 2026-04-22 11:25 | 5.22458 | 1.47902 | 31793 ft | 502 kts | 104° |
| 2026-04-22 11:25 | 5.21715 | 1.51334 | 32165 ft | 504 kts | 104° |
| 2026-04-22 11:25 | 5.20972 | 1.54766 | 32683 ft | 503 kts | 104° |
| 2026-04-22 11:25 | 5.20215 | 1.58198 | 33256 ft | 501 kts | 104° |
| 2026-04-22 11:26 | 5.19678 | 1.60440 | 33647 ft | 500 kts | 105° |
| 2026-04-22 11:26 | 5.18538 | 1.64955 | 34449 ft | 496 kts | 106° |
| 2026-04-22 11:26 | 5.17682 | 1.68268 | 35050 ft | 494 kts | 106° |
| 2026-04-22 11:26 | 5.16821 | 1.71593 | 35654 ft | 491 kts | 106° |
| 2026-04-22 11:27 | 5.15969 | 1.74893 | 36242 ft | 488 kts | 105° |
| 2026-04-22 11:27 | 5.15120 | 1.78186 | 36820 ft | 484 kts | 105° |
| 2026-04-22 11:27 | 5.14282 | 1.81446 | 37376 ft | 481 kts | 105° |
| 2026-04-22 11:27 | 5.13444 | 1.84708 | 37912 ft | 478 kts | 105° |
| 2026-04-22 11:28 | 5.12899 | 1.86832 | 38248 ft | 477 kts | 105° |
| 2026-04-22 11:28 | 5.12071 | 1.90063 | 38623 ft | 474 kts | 105° |
| 2026-04-22 11:28 | 5.11253 | 1.93254 | 38815 ft | 470 kts | 105° |
| 2026-04-22 11:29 | 5.09630 | 1.99588 | 38895 ft | 467 kts | 105° |
| 2026-04-22 11:29 | 5.08017 | 2.05874 | 38904 ft | 465 kts | 105° |
| 2026-04-22 11:30 | 5.06402 | 2.12161 | 38912 ft | 466 kts | 105° |
| 2026-04-22 11:30 | 5.04780 | 2.18472 | 38900 ft | 466 kts | 105° |
| 2026-04-22 11:31 | 5.03173 | 2.24734 | 38904 ft | 466 kts | 105° |
| 2026-04-22 11:31 | 5.01556 | 2.31038 | 38913 ft | 466 kts | 105° |
| 2026-04-22 11:32 | 4.99942 | 2.37325 | 38900 ft | 466 kts | 105° |
| 2026-04-22 11:32 | 4.98326 | 2.43623 | 38906 ft | 466 kts | 105° |
| 2026-04-22 11:33 | 4.96709 | 2.49922 | 38912 ft | 466 kts | 105° |
| 2026-04-22 11:33 | 4.95092 | 2.56215 | 38891 ft | 465 kts | 105° |
| 2026-04-22 11:34 | 4.93475 | 2.62494 | 38893 ft | 465 kts | 105° |
| 2026-04-22 11:34 | 4.91864 | 2.68756 | 38902 ft | 465 kts | 105° |
| 2026-04-22 11:35 | 4.90247 | 2.75040 | 38888 ft | 465 kts | 105° |
| 2026-04-22 11:35 | 4.88626 | 2.81340 | 38894 ft | 465 kts | 105° |
| 2026-04-22 11:36 | 4.87015 | 2.87597 | 38898 ft | 465 kts | 105° |
| 2026-04-22 11:36 | 4.85395 | 2.93891 | 38885 ft | 465 kts | 105° |
| 2026-04-22 11:37 | 4.83783 | 3.00149 | 38894 ft | 465 kts | 105° |
| 2026-04-22 11:37 | 4.82164 | 3.06431 | 38895 ft | 465 kts | 105° |
| 2026-04-22 11:38 | 4.80539 | 3.12738 | 38913 ft | 467 kts | 106° |
| 2026-04-22 11:38 | 4.79726 | 3.15895 | 39040 ft | 469 kts | 106° |
| 2026-04-22 11:38 | 4.78073 | 3.22297 | 39072 ft | 479 kts | 106° |
| 2026-04-22 11:39 | 4.76429 | 3.28665 | 39072 ft | 482 kts | 106° |
| 2026-04-22 11:39 | 4.74720 | 3.35291 | 39067 ft | 482 kts | 106° |
| 2026-04-22 11:40 | 4.73047 | 3.41771 | 39082 ft | 482 kts | 106° |
| 2026-04-22 11:40 | 4.71361 | 3.48296 | 39092 ft | 483 kts | 106° |
| 2026-04-22 11:41 | 4.69680 | 3.54797 | 39089 ft | 484 kts | 106° |
| 2026-04-22 11:41 | 4.67984 | 3.61358 | 39096 ft | 484 kts | 106° |
| 2026-04-22 11:42 | 4.66293 | 3.67895 | 39107 ft | 485 kts | 106° |
| 2026-04-22 11:42 | 4.64605 | 3.74416 | 39102 ft | 486 kts | 106° |
| 2026-04-22 11:43 | 4.62906 | 3.80980 | 39109 ft | 486 kts | 106° |
| 2026-04-22 11:43 | 4.61204 | 3.87553 | 39121 ft | 487 kts | 106° |
| 2026-04-22 11:44 | 4.59499 | 3.94133 | 39115 ft | 487 kts | 106° |
| 2026-04-22 11:44 | 4.57790 | 4.00726 | 39121 ft | 488 kts | 106° |
| 2026-04-22 11:45 | 4.56097 | 4.07256 | 39133 ft | 489 kts | 106° |
| 2026-04-22 11:45 | 4.54381 | 4.13869 | 39129 ft | 489 kts | 106° |
| 2026-04-22 11:46 | 4.52660 | 4.20497 | 39126 ft | 491 kts | 105° |
| 2026-04-22 11:46 | 4.50925 | 4.27175 | 39191 ft | 499 kts | 105° |
| 2026-04-22 11:47 | 4.49172 | 4.33931 | 39207 ft | 506 kts | 105° |
| 2026-04-22 11:47 | 4.47401 | 4.40753 | 39194 ft | 505 kts | 105° |
| 2026-04-22 11:48 | 4.45630 | 4.47569 | 39198 ft | 504 kts | 105° |
| 2026-04-22 11:48 | 4.44099 | 4.54396 | 39209 ft | 505 kts | 100° |
| 2026-04-22 11:49 | 4.43173 | 4.61377 | 39203 ft | 506 kts | 97° |
| 2026-04-22 11:49 | 4.42495 | 4.68253 | 39191 ft | 506 kts | 96° |
| 2026-04-22 11:50 | 4.41861 | 4.75264 | 39204 ft | 505 kts | 96° |
| 2026-04-22 11:50 | 4.41225 | 4.82317 | 39206 ft | 506 kts | 96° |
| 2026-04-22 11:51 | 4.40585 | 4.89349 | 39193 ft | 506 kts | 96° |
| 2026-04-22 11:51 | 4.39946 | 4.96338 | 39203 ft | 506 kts | 96° |
| 2026-04-22 11:52 | 4.39303 | 5.03353 | 39206 ft | 506 kts | 96° |
| 2026-04-22 11:52 | 4.38659 | 5.10383 | 39194 ft | 506 kts | 96° |
| 2026-04-22 11:53 | 4.38019 | 5.17358 | 39204 ft | 506 kts | 96° |
| 2026-04-22 11:53 | 4.37372 | 5.24404 | 39206 ft | 506 kts | 96° |
| 2026-04-22 11:54 | 4.36726 | 5.31428 | 39194 ft | 506 kts | 96° |
| 2026-04-22 11:54 | 4.36083 | 5.38407 | 39204 ft | 506 kts | 96° |
| 2026-04-22 11:55 | 4.35436 | 5.45430 | 39207 ft | 506 kts | 96° |
| 2026-04-22 11:55 | 4.34787 | 5.52470 | 39194 ft | 508 kts | 96° |
| 2026-04-22 11:56 | 4.34131 | 5.59573 | 39212 ft | 525 kts | 96° |
| 2026-04-22 11:56 | 4.33788 | 5.63274 | 39198 ft | 538 kts | 96° |
| 2026-04-22 11:56 | 4.33436 | 5.67055 | 39325 ft | 547 kts | 96° |
| 2026-04-22 11:57 | 4.33079 | 5.70848 | 40179 ft | 536 kts | 96° |
| 2026-04-22 11:57 | 4.32744 | 5.74452 | 41434 ft | 525 kts | 96° |
| 2026-04-22 11:57 | 4.32419 | 5.78098 | 41884 ft | 527 kts | 96° |
| 2026-04-22 11:57 | 4.32098 | 5.81817 | 41639 ft | 542 kts | 96° |
| 2026-04-22 11:58 | 4.31733 | 5.85575 | 41829 ft | 535 kts | 96° |
| 2026-04-22 11:58 | 4.31385 | 5.89088 | 44162 ft | 472 kts | 96° |
| 2026-04-22 11:58 | 4.31089 | 5.92114 | 47179 ft | 407 kts | 96° |
| 2026-04-22 11:58 | 4.30827 | 5.94803 | 48032 ft | 380 kts | 96° |
| 2026-04-22 11:59 | 4.30569 | 5.97446 | 47370 ft | 385 kts | 96° |
| 2026-04-22 11:59 | 4.30303 | 6.00170 | 46410 ft | 398 kts | 96° |
| 2026-04-22 11:59 | 4.30031 | 6.02984 | 45352 ft | 411 kts | 96° |
| 2026-04-22 11:59 | 4.29753 | 6.05881 | 44269 ft | 424 kts | 96° |
| 2026-04-22 12:00 | 4.29469 | 6.08872 | 43317 ft | 433 kts | 96° |
| 2026-04-22 12:00 | 4.29186 | 6.11869 | 42571 ft | 436 kts | 96° |
| 2026-04-22 12:00 | 4.28905 | 6.14845 | 41963 ft | 436 kts | 96° |
| 2026-04-22 12:00 | 4.28620 | 6.17873 | 41415 ft | 434 kts | 96° |
| 2026-04-22 12:01 | 4.28338 | 6.20868 | 40929 ft | 430 kts | 96° |
| 2026-04-22 12:01 | 4.28056 | 6.23851 | 40476 ft | 426 kts | 96° |
| 2026-04-22 12:01 | 4.27780 | 6.26786 | 40020 ft | 423 kts | 96° |
| 2026-04-22 12:01 | 4.27506 | 6.29683 | 39553 ft | 420 kts | 96° |
| 2026-04-22 12:02 | 4.27232 | 6.32574 | 39187 ft | 414 kts | 97° |
| 2026-04-22 12:02 | 4.26963 | 6.35424 | 39000 ft | 404 kts | 97° |
| 2026-04-22 12:02 | 4.26699 | 6.38212 | 38650 ft | 401 kts | 97° |
| 2026-04-22 12:02 | 4.26433 | 6.41010 | 38080 ft | 407 kts | 97° |
| 2026-04-22 12:03 | 4.26157 | 6.43887 | 37746 ft | 421 kts | 97° |
| 2026-04-22 12:03 | 4.25870 | 6.46860 | 37463 ft | 435 kts | 97° |
| 2026-04-22 12:03 | 4.25575 | 6.49915 | 37229 ft | 447 kts | 97° |
| 2026-04-22 12:03 | 4.25274 | 6.53028 | 37037 ft | 459 kts | 97° |
| 2026-04-22 12:04 | 4.24962 | 6.56259 | 36899 ft | 470 kts | 97° |
| 2026-04-22 12:04 | 4.24645 | 6.59543 | 36894 ft | 478 kts | 97° |
| 2026-04-22 12:04 | 4.24322 | 6.62897 | 37005 ft | 484 kts | 97° |
| 2026-04-22 12:04 | 4.23998 | 6.66258 | 37230 ft | 488 kts | 97° |
| 2026-04-22 12:05 | 4.23669 | 6.69654 | 37573 ft | 489 kts | 97° |
| 2026-04-22 12:05 | 4.23341 | 6.73037 | 38029 ft | 487 kts | 97° |
| 2026-04-22 12:05 | 4.23017 | 6.76377 | 38515 ft | 485 kts | 97° |
| 2026-04-22 12:05 | 4.22692 | 6.79725 | 38825 ft | 482 kts | 97° |
| 2026-04-22 12:06 | 4.22366 | 6.83079 | 38968 ft | 479 kts | 97° |
| 2026-04-22 12:06 | 4.22043 | 6.86400 | 38987 ft | 477 kts | 97° |
| 2026-04-22 12:06 | 4.21400 | 6.93000 | 38991 ft | 473 kts | 97° |
| 2026-04-22 12:07 | 4.20764 | 6.99523 | 39001 ft | 473 kts | 97° |
| 2026-04-22 12:07 | 4.20119 | 7.06120 | 38994 ft | 474 kts | 97° |
| 2026-04-22 12:08 | 4.19816 | 7.09233 | 38987 ft | 474 kts | 97° |
| 2026-04-22 12:09 | 4.19200 | 7.15548 | 38971 ft | 474 kts | 97° |
| 2026-04-22 12:09 | 4.18556 | 7.22139 | 38971 ft | 474 kts | 97° |
| 2026-04-22 12:10 | 4.17912 | 7.28716 | 38981 ft | 474 kts | 97° |
| 2026-04-22 12:10 | 4.17268 | 7.35287 | 38967 ft | 474 kts | 97° |
| 2026-04-22 12:11 | 4.16623 | 7.41864 | 38966 ft | 474 kts | 97° |
| 2026-04-22 12:11 | 4.16353 | 7.44613 | 38971 ft | 474 kts | 97° |
| 2026-04-22 12:12 | 4.15706 | 7.51201 | 38969 ft | 474 kts | 97° |
| 2026-04-22 12:12 | 4.15064 | 7.57741 | 38952 ft | 474 kts | 97° |
| 2026-04-22 12:13 | 4.14673 | 7.61720 | 38943 ft | 475 kts | 97° |
| 2026-04-22 12:13 | 4.14203 | 7.66501 | 38925 ft | 476 kts | 97° |
| 2026-04-22 12:14 | 4.14136 | 7.67177 | 38924 ft | 476 kts | 97° |
| 2026-04-22 12:15 | 4.13485 | 7.73755 | 38967 ft | 473 kts | 97° |
| 2026-04-22 12:15 | 4.12839 | 7.80326 | 38990 ft | 474 kts | 97° |
| 2026-04-22 12:16 | 4.12217 | 7.86881 | 38912 ft | 478 kts | 97° |
| 2026-04-22 12:16 | 4.11731 | 7.93522 | 38890 ft | 476 kts | 96° |
| 2026-04-22 12:17 | 4.11288 | 8.00156 | 38880 ft | 477 kts | 96° |
| 2026-04-22 12:17 | 4.10845 | 8.06797 | 38879 ft | 477 kts | 96° |
| 2026-04-22 12:18 | 4.10402 | 8.13403 | 38885 ft | 477 kts | 96° |
| 2026-04-22 12:18 | 4.09954 | 8.20048 | 38874 ft | 477 kts | 96° |
| 2026-04-22 12:19 | 4.09505 | 8.26687 | 38881 ft | 477 kts | 96° |
| 2026-04-22 12:19 | 4.09057 | 8.33317 | 38881 ft | 478 kts | 96° |
| 2026-04-22 12:20 | 4.08606 | 8.39973 | 38871 ft | 477 kts | 96° |
| 2026-04-22 12:20 | 4.08157 | 8.46609 | 38882 ft | 477 kts | 96° |
| 2026-04-22 12:21 | 4.07709 | 8.53202 | 38874 ft | 478 kts | 96° |
| 2026-04-22 12:21 | 4.07258 | 8.59845 | 38871 ft | 477 kts | 96° |
| 2026-04-22 12:22 | 4.06805 | 8.66499 | 38882 ft | 478 kts | 96° |
| 2026-04-22 12:22 | 4.06352 | 8.73150 | 38869 ft | 478 kts | 96° |
| 2026-04-22 12:23 | 4.05902 | 8.79747 | 38862 ft | 477 kts | 96° |
| 2026-04-22 12:23 | 4.05447 | 8.86387 | 38873 ft | 477 kts | 96° |
| 2026-04-22 12:24 | 4.04993 | 8.93026 | 38860 ft | 477 kts | 96° |
| 2026-04-22 12:24 | 4.04543 | 8.99601 | 38855 ft | 476 kts | 97° |
| 2026-04-22 12:25 | 4.04090 | 9.06226 | 38863 ft | 475 kts | 97° |
| 2026-04-22 12:25 | 4.03636 | 9.12836 | 38849 ft | 475 kts | 97° |
| 2026-04-22 12:26 | 4.03182 | 9.19442 | 38849 ft | 475 kts | 97° |
| 2026-04-22 12:26 | 4.02728 | 9.26035 | 38855 ft | 475 kts | 97° |
| 2026-04-22 12:27 | 4.02274 | 9.32629 | 38842 ft | 475 kts | 97° |
| 2026-04-22 12:27 | 4.01820 | 9.39225 | 38850 ft | 474 kts | 97° |
| 2026-04-22 12:28 | 4.01365 | 9.45810 | 38851 ft | 475 kts | 97° |
| 2026-04-22 12:28 | 4.00909 | 9.52412 | 38841 ft | 475 kts | 97° |
| 2026-04-22 12:29 | 4.00452 | 9.59010 | 38853 ft | 474 kts | 97° |
| 2026-04-22 12:29 | 3.99998 | 9.65573 | 38847 ft | 475 kts | 97° |
| 2026-04-22 12:30 | 3.99201 | 9.75464 | 38853 ft | 473 kts | 99° |
| 2026-04-22 12:31 | 3.98289 | 9.82009 | 38850 ft | 473 kts | 101° |
| 2026-04-22 12:31 | 3.97313 | 9.88536 | 38846 ft | 473 kts | 101° |
| 2026-04-22 12:32 | 3.96351 | 9.95009 | 38860 ft | 474 kts | 101° |
| 2026-04-22 12:32 | 3.94901 | 10.04835 | 38852 ft | 474 kts | 101° |
| 2026-04-22 12:33 | 3.93937 | 10.11374 | 38865 ft | 475 kts | 101° |
| 2026-04-22 12:33 | 3.92977 | 10.17887 | 38871 ft | 475 kts | 101° |
| 2026-04-22 12:34 | 3.92011 | 10.24446 | 38862 ft | 475 kts | 101° |
| 2026-04-22 12:34 | 3.91055 | 10.30941 | 38844 ft | 473 kts | 101° |
| 2026-04-22 12:35 | 3.90084 | 10.37510 | 38860 ft | 481 kts | 101° |
| 2026-04-22 12:35 | 3.89093 | 10.44211 | 38858 ft | 493 kts | 101° |
| 2026-04-22 12:36 | 3.88089 | 10.51031 | 38850 ft | 500 kts | 101° |
| 2026-04-22 12:36 | 3.87070 | 10.57944 | 38888 ft | 501 kts | 101° |
| 2026-04-22 12:37 | 3.86051 | 10.64855 | 38913 ft | 501 kts | 101° |
| 2026-04-22 12:37 | 3.85030 | 10.71761 | 38931 ft | 501 kts | 101° |
| 2026-04-22 12:38 | 3.84013 | 10.78630 | 38952 ft | 501 kts | 101° |
| 2026-04-22 12:38 | 3.82990 | 10.85542 | 38968 ft | 501 kts | 101° |
| 2026-04-22 12:39 | 3.81460 | 10.95873 | 38960 ft | 501 kts | 101° |
| 2026-04-22 12:40 | 3.80429 | 11.02830 | 38964 ft | 501 kts | 101° |
| 2026-04-22 12:40 | 3.79410 | 11.09699 | 38971 ft | 501 kts | 101° |
| 2026-04-22 12:41 | 3.78384 | 11.16606 | 38959 ft | 501 kts | 101° |
| 2026-04-22 12:41 | 3.77357 | 11.23527 | 38967 ft | 501 kts | 101° |
| 2026-04-22 12:42 | 3.76328 | 11.30448 | 38968 ft | 502 kts | 101° |
| 2026-04-22 12:42 | 3.75305 | 11.37329 | 38958 ft | 502 kts | 101° |
| 2026-04-22 12:43 | 3.74277 | 11.44242 | 38970 ft | 502 kts | 101° |
| 2026-04-22 12:43 | 3.73246 | 11.51168 | 38963 ft | 502 kts | 101° |
| 2026-04-22 12:44 | 3.72056 | 11.58047 | 38962 ft | 500 kts | 104° |
| 2026-04-22 12:44 | 3.70595 | 11.64837 | 38971 ft | 500 kts | 105° |
| 2026-04-22 12:45 | 3.69090 | 11.71632 | 38960 ft | 500 kts | 105° |
| 2026-04-22 12:45 | 3.67589 | 11.78443 | 38964 ft | 500 kts | 105° |
| 2026-04-22 12:46 | 3.66104 | 11.85218 | 38971 ft | 500 kts | 105° |
| 2026-04-22 12:46 | 3.65677 | 11.87164 | 38967 ft | 500 kts | 105° |
| 2026-04-22 12:47 | 3.64188 | 11.93965 | 38959 ft | 500 kts | 105° |
| 2026-04-22 12:47 | 3.62696 | 12.00779 | 38971 ft | 501 kts | 105° |
| 2026-04-22 12:48 | 3.61216 | 12.07543 | 38964 ft | 501 kts | 105° |
| 2026-04-22 12:48 | 3.59720 | 12.14366 | 38961 ft | 501 kts | 105° |
| 2026-04-22 12:49 | 3.58225 | 12.21182 | 38971 ft | 501 kts | 105° |
| 2026-04-22 12:49 | 3.56729 | 12.28001 | 38960 ft | 501 kts | 105° |
| 2026-04-22 12:50 | 3.55235 | 12.34808 | 38966 ft | 501 kts | 105° |
| 2026-04-22 12:50 | 3.53745 | 12.41592 | 38969 ft | 501 kts | 105° |
| 2026-04-22 12:51 | 3.52247 | 12.48412 | 38958 ft | 501 kts | 105° |
| 2026-04-22 12:51 | 3.50748 | 12.55233 | 38969 ft | 501 kts | 105° |
| 2026-04-22 12:52 | 3.49258 | 12.62010 | 38968 ft | 501 kts | 105° |
| 2026-04-22 12:52 | 3.47759 | 12.68823 | 38958 ft | 501 kts | 105° |
| 2026-04-22 12:53 | 3.46260 | 12.75636 | 38970 ft | 501 kts | 105° |
| 2026-04-22 12:53 | 3.44759 | 12.82456 | 38967 ft | 501 kts | 105° |
| 2026-04-22 12:54 | 3.43268 | 12.89230 | 38958 ft | 501 kts | 105° |
| 2026-04-22 12:54 | 3.41766 | 12.96048 | 38970 ft | 501 kts | 105° |
| 2026-04-22 12:55 | 3.40517 | 13.01716 | 38969 ft | 501 kts | 105° |
| 2026-04-22 12:55 | 3.38761 | 13.09681 | 38958 ft | 501 kts | 105° |
| 2026-04-22 12:56 | 3.37268 | 13.16454 | 38970 ft | 501 kts | 105° |
| 2026-04-22 12:56 | 3.36008 | 13.22162 | 38967 ft | 501 kts | 104° |
| 2026-04-22 12:57 | 3.34260 | 13.30086 | 38955 ft | 500 kts | 104° |
| 2026-04-22 12:57 | 3.33011 | 13.35742 | 38967 ft | 501 kts | 104° |
| 2026-04-22 12:58 | 3.31508 | 13.42550 | 38964 ft | 501 kts | 104° |
| 2026-04-22 12:58 | 3.30004 | 13.49361 | 38959 ft | 500 kts | 104° |
| 2026-04-22 12:59 | 3.28506 | 13.56138 | 38971 ft | 501 kts | 104° |
| 2026-04-22 12:59 | 3.27004 | 13.62933 | 38962 ft | 501 kts | 104° |
| 2026-04-22 13:00 | 3.25496 | 13.69753 | 38963 ft | 501 kts | 104° |
| 2026-04-22 13:00 | 3.23990 | 13.76563 | 38972 ft | 501 kts | 104° |
| 2026-04-22 13:01 | 3.22480 | 13.83385 | 38960 ft | 501 kts | 104° |
| 2026-04-22 13:01 | 3.20976 | 13.90177 | 38964 ft | 498 kts | 104° |
| 2026-04-22 13:02 | 3.19489 | 13.96897 | 38974 ft | 497 kts | 104° |
| 2026-04-22 13:02 | 3.17989 | 14.03675 | 38961 ft | 498 kts | 104° |
| 2026-04-22 13:03 | 3.16490 | 14.10443 | 38969 ft | 498 kts | 104° |
| 2026-04-22 13:03 | 3.14988 | 14.17221 | 38976 ft | 498 kts | 104° |
| 2026-04-22 13:04 | 3.13484 | 14.24002 | 38964 ft | 498 kts | 104° |
| 2026-04-22 13:04 | 3.11990 | 14.30739 | 38972 ft | 499 kts | 104° |
| 2026-04-22 13:05 | 3.10489 | 14.37504 | 38963 ft | 499 kts | 104° |
| 2026-04-22 13:05 | 3.08983 | 14.44294 | 38956 ft | 499 kts | 104° |
| 2026-04-22 13:06 | 3.07726 | 14.49957 | 38966 ft | 499 kts | 104° |
| 2026-04-22 13:06 | 3.06718 | 14.54496 | 38969 ft | 499 kts | 104° |
| 2026-04-22 13:07 | 3.05220 | 14.61242 | 38957 ft | 499 kts | 104° |
| 2026-04-22 13:07 | 3.03711 | 14.68033 | 38960 ft | 499 kts | 104° |
| 2026-04-22 13:08 | 3.02772 | 14.72260 | 38968 ft | 499 kts | 104° |
| 2026-04-22 13:08 | 3.01273 | 14.79004 | 38962 ft | 500 kts | 104° |
| 2026-04-22 13:09 | 3.01195 | 14.79355 | 38961 ft | 500 kts | 104° |